Time;durP1;ratioP1;P1;durP2;ratioP2;P2;SDS_P1;SDS_P2;PMS_P1;PMS_P2;Temp;Humidity;BMP_temperature;BMP_pressure;BME280_temperature;BME280_humidity;BME280_pressure;Samples;Min_cycle;Max_cycle;Signal;HPM_P1;HPM_P2
2022/12/30 00:00:26;;;;;;;4.20;1.80;;;9.10;38.30;;;;;;5047907;28;20452;-70
2022/12/30 00:02:51;;;;;;;4.03;2.00;;;9.10;38.20;;;;;;5049622;28;20179;-69
2022/12/30 00:05:17;;;;;;;6.10;2.50;;;9.10;38.30;;;;;;5049204;28;20257;-69
2022/12/30 00:07:42;;;;;;;5.60;2.17;;;9.10;38.40;;;;;;5047852;28;20844;-68
2022/12/30 00:10:08;;;;;;;3.23;1.97;;;9.00;35.90;;;;;;5042642;28;20255;-69
2022/12/30 00:34:56;;;;;;;8.47;1.80;;;8.90;38.00;;;;;;5049988;28;20446;-70
2022/12/30 00:37:21;;;;;;;5.10;2.00;;;8.90;38.10;;;;;;5048374;28;20526;-68
2022/12/30 00:39:47;;;;;;;5.00;1.80;;;8.90;38.00;;;;;;5036150;28;20531;-70
2022/12/30 00:44:56;;;;;;;4.87;2.00;;;8.70;37.90;;;;;;5049439;28;20181;-69
2022/12/30 00:47:22;;;;;;;9.50;2.17;;;8.70;37.80;;;;;;5050815;28;20411;-69
2022/12/30 00:58:00;;;;;;;6.93;1.97;;;8.50;37.70;;;;;;5038576;28;20454;-69
2022/12/30 01:00:25;;;;;;;7.70;1.93;;;8.40;35.40;;;;;;5049221;28;20487;-70
2022/12/30 01:02:51;;;;;;;6.80;1.90;;;8.40;37.80;;;;;;5044757;28;20248;-68
2022/12/30 01:05:16;;;;;;;5.13;2.30;;;8.40;37.60;;;;;;5047446;28;20192;-69
2022/12/30 01:07:42;;;;;;;5.50;1.93;;;8.30;37.50;;;;;;5046678;28;20273;-68
2022/12/30 01:10:10;;;;;;;6.17;1.63;;;8.10;35.20;;;;;;5047564;28;20828;-69
2022/12/30 01:12:36;;;;;;;5.07;1.70;;;8.20;37.60;;;;;;5041814;28;20222;-68
2022/12/30 01:15:02;;;;;;;3.30;1.60;;;8.20;37.60;;;;;;5032828;28;20439;-69
2022/12/30 01:17:30;;;;;;;8.73;2.10;;;8.10;37.40;;;;;;5041528;28;20178;-70
2022/12/30 01:19:56;;;;;;;4.50;1.60;;;8.00;35.10;;;;;;5047533;28;20408;-72
2022/12/30 01:22:22;;;;;;;7.07;1.87;;;8.00;37.50;;;;;;5040266;28;20622;-73
2022/12/30 01:24:48;;;;;;;6.90;1.90;;;8.00;37.30;;;;;;5034609;28;20170;-72
2022/12/30 01:27:14;;;;;;;12.50;2.50;;;8.00;37.50;;;;;;5033489;28;20744;-70
2022/12/30 01:29:41;;;;;;;6.60;2.13;;;7.90;44.00;;;;;;5046402;28;20169;-68
2022/12/30 01:32:13;;;;;;;4.23;1.87;;;7.90;42.60;;;;;;5042595;28;20501;-68
2022/12/30 01:34:39;;;;;;;7.60;1.80;;;7.90;53.10;;;;;;5046855;28;20428;-69
2022/12/30 01:37:06;;;;;;;8.53;2.00;;;7.80;49.80;;;;;;5048706;28;20420;-68
2022/12/30 01:39:32;;;;;;;4.73;1.83;;;7.80;50.50;;;;;;5045765;28;20427;-68
2022/12/30 01:41:58;;;;;;;8.50;1.73;;;7.70;47.20;;;;;;5031781;28;20459;-69
2022/12/30 01:44:48;;;;;;;4.40;1.60;;;7.60;47.80;;;;;;5031490;28;20657;-68
2022/12/30 01:47:39;;;;;;;6.40;2.20;;;7.40;45.30;;;;;;5045460;28;20184;-69
2022/12/30 01:50:24;;;;;;;11.50;2.30;;;7.20;49.70;;;;;;5038512;28;20561;-69
2022/12/30 01:52:52;;;;;;;3.53;1.70;;;7.20;53.50;;;;;;5049266;28;20774;-68
2022/12/30 01:55:40;;;;;;;4.83;2.10;;;7.10;53.50;;;;;;5045572;28;20443;-68
2022/12/30 01:58:14;;;;;;;4.53;2.17;;;7.00;55.60;;;;;;5026621;28;20940;-68
2022/12/30 02:00:39;;;;;;;5.13;2.30;;;6.90;54.70;;;;;;5047963;28;20827;-68
2022/12/30 02:03:06;;;;;;;7.57;2.40;;;6.90;58.60;;;;;;5047415;28;20489;-68
2022/12/30 02:05:35;;;;;;;6.80;2.50;;;6.80;57.00;;;;;;5046349;28;20181;-68
2022/12/30 02:08:17;;;;;;;7.33;2.27;;;6.70;58.30;;;;;;5036121;28;20455;-69
2022/12/30 02:10:47;;;;;;;4.37;2.20;;;6.60;56.20;;;;;;5037212;28;20466;-68
2022/12/30 02:13:14;;;;;;;7.30;2.27;;;6.50;60.90;;;;;;5045438;28;20480;-70
2022/12/30 02:15:59;;;;;;;7.83;2.10;;;6.50;69.80;;;;;;5046197;28;20470;-69
2022/12/30 02:18:34;;;;;;;11.60;2.13;;;6.60;75.20;;;;;;5039501;28;20457;-69
2022/12/30 02:21:30;;;;;;;3.17;1.70;;;6.60;68.10;;;;;;5041894;28;20459;-68
2022/12/30 02:24:24;;;;;;;5.90;2.23;;;6.60;67.90;;;;;;5052851;28;20455;-69
2022/12/30 02:27:12;;;;;;;7.27;2.40;;;6.50;62.10;;;;;;5043403;28;20435;-68
2022/12/30 02:29:58;;;;;;;5.97;1.83;;;6.40;64.50;;;;;;5040931;28;20860;-69
2022/12/30 02:33:01;;;;;;;8.93;2.30;;;6.40;66.10;;;;;;5041308;28;20431;-69
2022/12/30 02:35:36;;;;;;;9.90;2.10;;;6.30;69.60;;;;;;5039864;28;20420;-69
2022/12/30 02:38:43;;;;;;;3.23;2.00;;;6.30;68.80;;;;;;5039181;28;20795;-69
2022/12/30 02:47:06;;;;;;;6.00;1.80;;;6.30;77.50;;;;;;5047839;28;20476;-68
2022/12/30 02:49:35;;;;;;;4.00;1.93;;;6.30;75.40;;;;;;5031550;28;20423;-68
2022/12/30 02:52:14;;;;;;;7.67;2.00;;;6.30;70.80;;;;;;5040571;28;20981;-68
2022/12/30 02:54:41;;;;;;;4.50;2.10;;;6.20;67.50;;;;;;5043102;28;20960;-68
2022/12/30 02:57:30;;;;;;;7.70;2.13;;;6.10;67.60;;;;;;5040882;28;20440;-68
2022/12/30 03:06:08;;;;;;;4.60;1.93;;;6.10;78.00;;;;;;5046651;28;20431;-68
2022/12/30 03:09:05;;;;;;;7.53;2.43;;;6.20;81.60;;;;;;5042636;28;20428;-68
2022/12/30 03:11:48;;;;;;;4.33;2.10;;;6.20;76.60;;;;;;5041854;28;20442;-69
2022/12/30 03:14:36;;;;;;;6.23;2.07;;;6.10;78.20;;;;;;5043085;28;20446;-69
2022/12/30 03:17:10;;;;;;;6.90;2.00;;;6.20;81.00;;;;;;5030691;28;20435;-68
2022/12/30 03:19:41;;;;;;;5.30;2.40;;;6.20;83.70;;;;;;5043859;28;20412;-68
2022/12/30 03:27:03;;;;;;;8.87;2.43;;;6.20;82.20;;;;;;5048646;28;20517;-68
2022/12/30 03:27:42;;;;;;;7.10;2.43;;;6.20;83.80;;;;;;5046793;28;20477;-69
2022/12/30 03:30:09;;;;;;;10.17;2.90;;;6.30;87.10;;;;;;5044315;28;20458;-67
2022/12/30 03:32:34;;;;;;;9.23;3.00;;;6.30;89.10;;;;;;5046012;28;20557;-69
2022/12/30 03:35:00;;;;;;;9.20;2.90;;;6.30;90.20;;;;;;5038736;28;20435;-69
2022/12/30 03:37:31;;;;;;;7.40;2.60;;;6.40;90.00;;;;;;5046831;28;20173;-69
2022/12/30 03:40:15;;;;;;;7.00;2.03;;;6.40;80.90;;;;;;5038837;28;20177;-69
2022/12/30 03:42:41;;;;;;;5.37;2.13;;;6.60;81.50;;;;;;5040945;28;20471;-68
2022/12/30 03:45:07;;;;;;;4.67;2.00;;;6.40;85.60;;;;;;5040168;28;20427;-69
2022/12/30 03:47:32;;;;;;;8.67;1.70;;;6.40;83.30;;;;;;5046937;28;21116;-69
2022/12/30 03:49:58;;;;;;;6.83;2.17;;;6.30;68.90;;;;;;5049165;28;20447;-68
2022/12/30 03:52:23;;;;;;;5.97;2.20;;;6.30;71.40;;;;;;5053126;28;20181;-69
2022/12/30 03:54:50;;;;;;;6.40;2.37;;;6.20;69.50;;;;;;5044487;28;20184;-68
2022/12/30 03:57:17;;;;;;;7.63;2.30;;;6.10;70.70;;;;;;5051285;28;20188;-69
2022/12/30 03:59:43;;;;;;;6.87;2.03;;;6.00;68.30;;;;;;5048309;28;20458;-68
2022/12/30 04:02:09;;;;;;;6.20;2.30;;;6.00;63.00;;;;;;5049380;28;20471;-69
2022/12/30 04:04:35;;;;;;;3.57;2.10;;;6.10;61.10;;;;;;5043892;28;20181;-69
2022/12/30 04:07:01;;;;;;;5.87;2.23;;;5.80;63.40;;;;;;5051795;28;20416;-68
2022/12/30 04:09:26;;;;;;;4.13;2.40;;;5.70;60.50;;;;;;5048535;28;20185;-68
2022/12/30 04:11:51;;;;;;;3.37;1.80;;;5.70;57.90;;;;;;5050312;28;20217;-68
2022/12/30 04:14:17;;;;;;;4.10;2.53;;;5.60;59.80;;;;;;5041512;28;20255;-69
2022/12/30 04:16:43;;;;;;;8.93;2.77;;;5.50;58.30;;;;;;5045622;28;20672;-67
2022/12/30 04:19:08;;;;;;;4.97;2.17;;;5.70;58.60;;;;;;5049874;28;20184;-69
2022/12/30 04:21:34;;;;;;;6.13;1.90;;;5.40;57.60;;;;;;5035007;28;20296;-68
2022/12/30 04:23:59;;;;;;;8.43;2.40;;;5.40;62.40;;;;;;5036654;28;20169;-68
2022/12/30 04:26:25;;;;;;;18.37;2.57;;;5.30;59.10;;;;;;5049592;28;20208;-68
2022/12/30 04:28:50;;;;;;;9.97;4.70;;;5.20;63.60;;;;;;5049129;28;20197;-67
2022/12/30 04:31:16;;;;;;;5.53;2.73;;;5.20;68.20;;;;;;5049310;28;20527;-69
2022/12/30 04:33:42;;;;;;;11.07;4.70;;;5.20;74.70;;;;;;5047835;28;20710;-69
2022/12/30 04:36:08;;;;;;;8.33;3.60;;;5.30;86.80;;;;;;5049389;28;20181;-68
2022/12/30 04:38:34;;;;;;;9.60;3.43;;;5.40;84.30;;;;;;5043417;28;20192;-68
2022/12/30 04:41:00;;;;;;;6.87;3.70;;;5.30;73.20;;;;;;5048667;28;20520;-69
2022/12/30 04:43:26;;;;;;;5.43;2.93;;;5.30;72.80;;;;;;5048964;28;20499;-68
2022/12/30 04:45:52;;;;;;;6.00;2.70;;;5.20;73.00;;;;;;5047416;28;20181;-69
2022/12/30 04:48:17;;;;;;;7.70;3.00;;;5.20;72.00;;;;;;5050404;28;20407;-68
2022/12/30 04:50:44;;;;;;;7.30;3.20;;;5.10;72.80;;;;;;5035163;28;20205;-68
2022/12/30 04:53:11;;;;;;;8.07;3.10;;;5.40;77.50;;;;;;5037837;28;20205;-69
2022/12/30 04:55:37;;;;;;;9.77;3.00;;;5.10;76.60;;;;;;5032790;28;20458;-68
2022/12/30 04:58:03;;;;;;;3.30;2.47;;;5.10;74.80;;;;;;5049045;28;20983;-68
2022/12/30 05:00:29;;;;;;;3.43;2.57;;;5.10;73.60;;;;;;5045268;28;20455;-68
2022/12/30 05:02:55;;;;;;;3.57;2.33;;;5.10;77.60;;;;;;5043043;28;20174;-68
2022/12/30 05:05:21;;;;;;;7.73;2.20;;;5.50;77.80;;;;;;5041926;28;20209;-68
2022/12/30 05:07:46;;;;;;;5.73;2.67;;;5.10;79.90;;;;;;5048501;28;20444;-72
2022/12/30 05:10:12;;;;;;;3.37;2.50;;;5.10;72.10;;;;;;5046852;28;20197;-71
2022/12/30 05:12:37;;;;;;;5.00;2.67;;;5.50;74.10;;;;;;5035057;28;20178;-71
2022/12/30 05:15:03;;;;;;;3.40;2.40;;;5.10;75.70;;;;;;5046920;28;20189;-71
2022/12/30 05:17:29;;;;;;;8.40;2.40;;;5.10;72.50;;;;;;5050207;28;20659;-71
2022/12/30 05:19:54;;;;;;;6.83;2.37;;;4.90;65.60;;;;;;5048918;28;20497;-72
2022/12/30 05:22:20;;;;;;;5.73;2.70;;;4.90;68.30;;;;;;5050574;28;20200;-72
2022/12/30 05:27:29;;;;;;;3.20;2.40;;;4.90;73.40;;;;;;5049472;28;20651;-72
2022/12/30 05:29:55;;;;;;;4.80;2.40;;;4.90;68.20;;;;;;5044271;28;20451;-71
2022/12/30 05:32:20;;;;;;;5.20;2.73;;;4.90;71.70;;;;;;5045347;28;20242;-72
2022/12/30 05:34:46;;;;;;;4.37;2.57;;;4.90;67.00;;;;;;5039722;28;20174;-70
2022/12/30 05:37:11;;;;;;;7.23;4.03;;;5.10;68.40;;;;;;5040187;28;20659;-72
2022/12/30 05:39:37;;;;;;;4.27;3.20;;;4.90;66.10;;;;;;5038878;28;20177;-71
2022/12/30 05:42:02;;;;;;;4.87;2.77;;;4.70;63.40;;;;;;5040310;28;20277;-70
2022/12/30 05:44:28;;;;;;;3.73;2.30;;;4.80;69.00;;;;;;5046469;28;20181;-71
2022/12/30 05:46:54;;;;;;;6.60;2.57;;;4.70;67.90;;;;;;5047147;28;20177;-72
2022/12/30 05:49:19;;;;;;;6.30;2.50;;;5.20;69.20;;;;;;5047912;28;20179;-71
2022/12/30 05:51:45;;;;;;;5.77;2.83;;;4.70;62.50;;;;;;5044193;28;20647;-68
2022/12/30 05:54:10;;;;;;;3.10;2.63;;;4.60;67.10;;;;;;5039196;28;20182;-69
2022/12/30 05:56:36;;;;;;;6.23;2.60;;;4.60;69.10;;;;;;5044616;28;20595;-67
2022/12/30 05:59:01;;;;;;;4.63;2.67;;;4.50;67.90;;;;;;5048750;28;20204;-71
2022/12/30 06:01:27;;;;;;;6.10;2.67;;;4.50;61.50;;;;;;5047486;28;20220;-73
2022/12/30 06:03:56;;;;;;;4.93;2.50;;;4.40;61.70;;;;;;5048938;28;20173;-71
2022/12/30 06:06:22;;;;;;;7.80;3.70;;;4.40;62.90;;;;;;5047647;28;20173;-71
2022/12/30 06:08:48;;;;;;;5.83;3.17;;;4.30;63.70;;;;;;5040515;28;20946;-71
2022/12/30 06:11:13;;;;;;;7.47;2.93;;;4.30;58.20;;;;;;5041807;28;20443;-71
2022/12/30 06:13:39;;;;;;;8.13;3.00;;;4.20;64.90;;;;;;5045158;28;20185;-70
2022/12/30 06:16:05;;;;;;;7.80;3.50;;;4.50;62.80;;;;;;5041106;28;20201;-68
2022/12/30 06:18:31;;;;;;;4.83;3.53;;;4.20;61.60;;;;;;5045099;28;20185;-68
2022/12/30 06:20:56;;;;;;;9.13;4.70;;;4.20;61.40;;;;;;5043667;28;20827;-69
2022/12/30 06:23:22;;;;;;;7.50;4.13;;;4.10;58.80;;;;;;5052098;28;20184;-70
2022/12/30 06:25:55;;;;;;;5.30;3.70;;;4.00;64.10;;;;;;5045023;28;20272;-69
2022/12/30 06:28:22;;;;;;;5.77;3.40;;;4.00;70.80;;;;;;5045887;28;20424;-68
2022/12/30 06:30:48;;;;;;;5.60;3.47;;;4.00;71.90;;;;;;5046572;28;20825;-69
2022/12/30 06:33:15;;;;;;;5.63;3.57;;;4.10;75.10;;;;;;5048123;28;20427;-69
2022/12/30 06:35:41;;;;;;;13.70;4.60;;;4.00;76.90;;;;;;5044909;28;20462;-69
2022/12/30 06:38:06;;;;;;;10.13;5.03;;;4.10;76.90;;;;;;5043275;28;20950;-68
2022/12/30 06:40:32;;;;;;;11.60;4.63;;;4.00;70.90;;;;;;5043403;28;20213;-68
2022/12/30 06:42:57;;;;;;;9.77;5.77;;;4.00;73.40;;;;;;5043252;28;20181;-67
2022/12/30 06:45:23;;;;;;;12.70;6.50;;;4.20;71.20;;;;;;5047558;28;20273;-70
2022/12/30 06:47:48;;;;;;;10.60;5.70;;;4.00;68.10;;;;;;5045162;28;20185;-68
2022/12/30 06:50:14;;;;;;;17.03;6.87;;;4.00;61.70;;;;;;5044244;28;20189;-68
2022/12/30 06:52:40;;;;;;;10.83;6.13;;;4.00;64.00;;;;;;5034402;28;20193;-70
2022/12/30 06:55:06;;;;;;;13.33;5.97;;;4.10;61.60;;;;;;5046666;28;20212;-72
2022/12/30 06:57:31;;;;;;;10.40;5.90;;;4.20;63.30;;;;;;5045211;28;20216;-71
2022/12/30 06:59:57;;;;;;;11.80;6.33;;;4.40;59.80;;;;;;5046884;28;20437;-72
2022/12/30 07:02:22;;;;;;;11.47;6.03;;;4.80;62.80;;;;;;5037224;28;20589;-69
2022/12/30 07:04:48;;;;;;;13.90;6.30;;;4.50;58.90;;;;;;5048099;28;20248;-72
2022/12/30 07:07:13;;;;;;;9.10;5.83;;;4.70;62.30;;;;;;5046835;28;20165;-72
2022/12/30 07:09:39;;;;;;;13.10;6.30;;;5.00;59.40;;;;;;5029396;28;20205;-72
2022/12/30 07:12:05;;;;;;;11.83;6.67;;;4.80;54.10;;;;;;5047818;28;20200;-73
2022/12/30 07:14:30;;;;;;;59.97;23.47;;;4.90;55.00;;;;;;5039294;28;20646;-72
2022/12/30 07:16:55;;;;;;;14.90;7.60;;;4.90;56.30;;;;;;5040589;28;20200;-73
2022/12/30 07:19:21;;;;;;;18.67;9.07;;;5.30;58.30;;;;;;5047105;28;20257;-70
2022/12/30 07:21:47;;;;;;;31.97;11.20;;;4.90;56.10;;;;;;5042650;28;20280;-67
2022/12/30 07:24:12;;;;;;;19.63;8.80;;;4.80;56.10;;;;;;5039120;28;20182;-70
2022/12/30 07:26:38;;;;;;;15.20;7.33;;;5.20;56.90;;;;;;5039750;28;20265;-69
2022/12/30 17:27:25;;;;;;;10.83;5.17;;;8.80;99.90;;;;;;5060766;28;20566;-70
2022/12/30 17:29:51;;;;;;;8.70;5.60;;;8.80;99.90;;;;;;5061910;28;20430;-69
2022/12/30 17:32:23;;;;;;;11.60;6.60;;;8.90;99.90;;;;;;5059418;28;20457;-70
2022/12/30 17:34:49;;;;;;;12.70;7.27;;;9.10;99.90;;;;;;5059871;28;20243;-70
2022/12/30 17:37:14;;;;;;;17.87;6.80;;;9.20;99.90;;;;;;5063837;28;20439;-73
2022/12/30 17:39:40;;;;;;;18.83;7.57;;;9.30;99.90;;;;;;5063691;28;20177;-73
2022/12/30 17:42:05;;;;;;;12.60;6.17;;;9.40;99.90;;;;;;5067401;28;20196;-72
2022/12/30 17:44:31;;;;;;;12.37;5.57;;;9.50;99.90;;;;;;5062659;28;20191;-72
2022/12/30 17:46:56;;;;;;;11.27;6.47;;;9.50;99.90;;;;;;5063763;28;20200;-71
2022/12/30 17:49:22;;;;;;;10.37;5.63;;;9.70;99.40;;;;;;5056897;28;20601;-71
2022/12/30 17:51:47;;;;;;;14.80;5.87;;;9.80;98.20;;;;;;5064265;28;20694;-71
2022/12/30 17:54:13;;;;;;;9.13;5.40;;;9.80;99.10;;;;;;5073789;28;20180;-70
2022/12/30 17:56:38;;;;;;;7.70;4.90;;;9.90;96.10;;;;;;5058311;28;20180;-70
2022/12/30 17:59:04;;;;;;;8.97;5.60;;;9.90;95.30;;;;;;5063664;28;20173;-71
2022/12/30 18:01:30;;;;;;;7.80;4.40;;;9.90;94.40;;;;;;5058941;28;20196;-71
2022/12/30 18:03:56;;;;;;;8.30;4.90;;;10.00;93.90;;;;;;5059270;28;20429;-70
2022/12/30 18:06:22;;;;;;;7.00;4.70;;;10.00;93.00;;;;;;5044720;28;20695;-71
2022/12/30 18:08:48;;;;;;;6.40;4.40;;;10.00;92.70;;;;;;5045210;28;20451;-70
2022/12/30 18:11:15;;;;;;;6.37;4.13;;;10.00;93.30;;;;;;5044589;28;20189;-71
2022/12/30 18:13:41;;;;;;;9.57;4.70;;;10.10;91.10;;;;;;5044803;28;20181;-71
2022/12/30 18:16:14;;;;;;;7.40;5.13;;;10.10;92.00;;;;;;5080155;28;20438;-70
2022/12/30 18:18:41;;;;;;;7.20;4.70;;;10.10;92.00;;;;;;5066098;28;20412;-70
2022/12/30 18:21:09;;;;;;;9.40;6.00;;;10.10;92.50;;;;;;5049894;28;20595;-70
2022/12/30 18:23:35;;;;;;;7.67;5.23;;;10.10;92.50;;;;;;5067855;28;20466;-71
2022/12/30 18:26:06;;;;;;;7.80;4.80;;;10.10;93.90;;;;;;5043387;28;20459;-70
2022/12/30 18:28:32;;;;;;;8.10;4.93;;;10.10;93.90;;;;;;5044688;28;20412;-70
2022/12/30 18:31:17;;;;;;;6.17;4.63;;;10.10;93.80;;;;;;5044000;28;20954;-70
2022/12/30 18:33:42;;;;;;;8.63;5.00;;;10.20;95.20;;;;;;5045274;28;20252;-70
2022/12/30 18:36:11;;;;;;;6.20;4.30;;;10.20;94.00;;;;;;5059009;28;20549;-69
2022/12/30 18:38:36;;;;;;;6.37;4.07;;;10.30;94.90;;;;;;5042417;28;20209;-69
2022/12/30 18:41:08;;;;;;;7.97;5.03;;;10.30;94.00;;;;;;5046666;28;20597;-69
2022/12/30 18:43:33;;;;;;;6.37;4.60;;;10.40;93.70;;;;;;5038379;28;20165;-70
2022/12/30 18:46:03;;;;;;;10.43;4.60;;;10.40;94.00;;;;;;5049162;28;20771;-70
2022/12/30 18:48:29;;;;;;;7.70;5.13;;;10.50;94.60;;;;;;5047505;28;20841;-68
2022/12/30 18:50:56;;;;;;;8.83;4.80;;;10.50;92.80;;;;;;5042725;28;20459;-68
2022/12/30 18:53:22;;;;;;;6.73;4.60;;;10.50;93.80;;;;;;5048379;28;20184;-70
2022/12/30 18:56:10;;;;;;;10.27;4.80;;;10.50;95.20;;;;;;5048523;28;20511;-70
2022/12/30 18:58:36;;;;;;;6.53;4.77;;;10.60;95.20;;;;;;5043926;28;20209;-70
2022/12/30 19:01:07;;;;;;;6.40;4.50;;;10.60;95.70;;;;;;5049560;28;20427;-69
2022/12/30 19:03:33;;;;;;;5.97;4.73;;;10.60;97.10;;;;;;5036291;28;20447;-70
2022/12/30 19:06:00;;;;;;;14.10;5.40;;;10.70;95.80;;;;;;5035128;28;20500;-73
2022/12/30 19:08:25;;;;;;;9.07;5.53;;;10.80;95.70;;;;;;5030843;28;20256;-70
2022/12/30 19:11:09;;;;;;;7.07;4.97;;;10.80;95.40;;;;;;5045106;28;20487;-71
2022/12/30 19:13:35;;;;;;;7.13;5.37;;;10.80;95.20;;;;;;5042510;28;20180;-71
2022/12/30 19:16:04;;;;;;;8.67;5.67;;;10.90;95.80;;;;;;5041512;28;20488;-71
2022/12/30 19:18:31;;;;;;;9.47;5.73;;;10.90;94.10;;;;;;5043821;28;20541;-71
2022/12/30 19:20:57;;;;;;;9.47;5.93;;;11.00;94.30;;;;;;5045283;28;20459;-70
2022/12/30 19:23:23;;;;;;;9.93;6.10;;;11.00;93.50;;;;;;5048917;28;20787;-71
2022/12/30 19:25:50;;;;;;;9.33;5.60;;;11.10;94.90;;;;;;5043118;28;20455;-69
2022/12/30 19:28:16;;;;;;;10.57;6.00;;;11.10;92.40;;;;;;5043556;28;20430;-71
2022/12/30 19:30:41;;;;;;;6.63;5.03;;;11.10;95.10;;;;;;5042836;28;20830;-68
2022/12/30 19:33:07;;;;;;;11.60;6.73;;;11.10;98.60;;;;;;5039587;28;20327;-70
2022/12/30 19:35:34;;;;;;;7.20;4.30;;;11.10;99.40;;;;;;5040938;28;20187;-71
2022/12/30 19:37:59;;;;;;;5.30;3.87;;;11.20;99.90;;;;;;5042524;28;20710;-71
2022/12/30 19:40:25;;;;;;;6.47;4.20;;;11.30;99.90;;;;;;5041244;28;20487;-71
2022/12/30 19:42:50;;;;;;;3.50;3.20;;;11.30;99.90;;;;;;5037971;28;20731;-71
2022/12/30 19:45:16;;;;;;;5.77;3.23;;;11.40;99.90;;;;;;5039240;28;20220;-71
2022/12/30 19:47:41;;;;;;;5.47;3.37;;;11.50;99.90;;;;;;5043655;28;20611;-71
2022/12/30 19:50:08;;;;;;;6.70;2.90;;;11.70;99.90;;;;;;5044133;28;20262;-71
2022/12/30 19:52:34;;;;;;;2.90;2.60;;;11.70;99.90;;;;;;5044570;28;20173;-70
2022/12/30 19:55:00;;;;;;;2.70;2.40;;;11.80;99.90;;;;;;5037890;28;20440;-71
2022/12/30 19:57:25;;;;;;;7.47;5.10;;;11.90;99.90;;;;;;5041853;28;20439;-70
2022/12/30 19:59:51;;;;;;;6.10;2.70;;;11.90;99.90;;;;;;5037182;28;20181;-68
2022/12/30 20:02:16;;;;;;;3.80;3.07;;;11.90;99.90;;;;;;5038816;28;20243;-70
2022/12/30 20:04:44;;;;;;;4.13;3.40;;;12.00;99.90;;;;;;5038544;28;20205;-69
2022/12/30 20:07:11;;;;;;;2.80;1.87;;;12.00;99.90;;;;;;5045232;28;20760;-71
2022/12/30 20:09:36;;;;;;;2.90;2.60;;;12.10;99.90;;;;;;5039418;28;20429;-71
2022/12/30 20:12:02;;;;;;;2.60;2.40;;;12.10;99.90;;;;;;5049480;28;20428;-71
2022/12/30 20:14:28;;;;;;;4.33;2.27;;;12.20;99.90;;;;;;5043676;28;20299;-71
2022/12/30 20:16:53;;;;;;;1.93;1.70;;;12.20;99.90;;;;;;5044828;28;20508;-71
2022/12/30 20:19:20;;;;;;;3.37;1.80;;;12.20;98.30;;;;;;5042636;28;20178;-71
2022/12/30 20:21:47;;;;;;;2.90;2.33;;;12.30;94.90;;;;;;5041750;28;20652;-71
2022/12/30 20:24:13;;;;;;;2.43;1.97;;;12.30;96.40;;;;;;5039913;28;20496;-71
2022/12/30 20:26:39;;;;;;;3.83;2.43;;;12.30;96.30;;;;;;5048717;28;20471;-72
2022/12/30 20:29:10;;;;;;;2.80;2.20;;;12.40;94.00;;;;;;5049409;28;20169;-71
2022/12/30 20:31:39;;;;;;;2.43;1.90;;;12.40;93.10;;;;;;5045673;28;20562;-71
2022/12/30 20:34:06;;;;;;;5.20;2.10;;;12.50;92.10;;;;;;5047445;28;20506;-71
2022/12/30 20:36:32;;;;;;;2.00;1.80;;;12.50;91.80;;;;;;5047711;28;20439;-71
2022/12/30 20:39:00;;;;;;;3.83;1.90;;;12.50;90.70;;;;;;5040583;28;20431;-72
2022/12/30 20:41:26;;;;;;;2.10;1.80;;;12.50;88.80;;;;;;5037508;28;20284;-72
2022/12/30 20:43:52;;;;;;;5.67;1.83;;;12.50;90.70;;;;;;5047078;28;21110;-71
2022/12/30 20:46:18;;;;;;;3.70;1.83;;;12.50;89.80;;;;;;5043452;28;20675;-71
2022/12/30 20:48:44;;;;;;;2.53;1.63;;;12.60;90.10;;;;;;5046339;28;20455;-71
2022/12/30 20:51:18;;;;;;;3.10;1.77;;;12.70;84.00;;;;;;5041226;28;20287;-71
2022/12/30 20:53:45;;;;;;;4.00;1.70;;;12.70;86.60;;;;;;5041608;28;20515;-71
2022/12/30 20:56:17;;;;;;;2.70;1.50;;;12.70;84.90;;;;;;5039961;28;20439;-71
2022/12/30 20:58:43;;;;;;;2.97;2.30;;;12.70;84.90;;;;;;5043333;28;21210;-71
2022/12/30 21:01:12;;;;;;;2.50;2.30;;;12.80;84.50;;;;;;5047796;28;20444;-71
2022/12/30 21:03:38;;;;;;;2.03;1.83;;;12.80;85.80;;;;;;5057505;28;20227;-72
2022/12/30 21:06:04;;;;;;;3.30;1.90;;;12.80;85.10;;;;;;5067861;28;20988;-72
2022/12/30 21:08:30;;;;;;;3.90;2.00;;;12.80;88.60;;;;;;5048237;28;20477;-72
2022/12/30 21:10:59;;;;;;;5.00;2.37;;;12.80;87.30;;;;;;5046838;28;20455;-71
2022/12/30 21:13:27;;;;;;;2.10;1.83;;;12.80;90.00;;;;;;5049426;28;21178;-71
2022/12/30 21:15:53;;;;;;;2.40;1.60;;;12.90;90.10;;;;;;5057496;28;20913;-71
2022/12/30 21:18:18;;;;;;;1.90;1.60;;;13.00;87.20;;;;;;5043758;28;20423;-71
2022/12/30 21:20:44;;;;;;;3.00;1.40;;;13.00;81.10;;;;;;5031691;28;20266;-71
2022/12/30 21:23:09;;;;;;;1.60;1.50;;;13.00;83.70;;;;;;5058603;28;20180;-71
2022/12/30 21:25:35;;;;;;;1.50;1.40;;;13.10;77.90;;;;;;5049418;28;20216;-71
2022/12/30 21:28:00;;;;;;;2.60;1.40;;;13.10;75.40;;;;;;5028611;28;20696;-72
2022/12/30 21:30:26;;;;;;;1.87;1.67;;;13.20;72.00;;;;;;5042872;28;20188;-71
2022/12/30 21:32:51;;;;;;;2.43;1.87;;;13.20;69.50;;;;;;5040979;28;20647;-71
2022/12/30 21:35:17;;;;;;;1.77;1.50;;;13.20;66.60;;;;;;5048095;28;20200;-72
2022/12/30 21:37:43;;;;;;;1.50;1.40;;;13.30;64.50;;;;;;5041326;28;20192;-71
2022/12/30 22:02:46;;;;;;;3.43;1.40;;;13.60;41.00;;;;;;5034733;28;20443;-70
2022/12/30 22:05:31;;;;;;;2.37;1.40;;;13.60;41.20;;;;;;5042642;28;20496;-69
2022/12/30 22:08:02;;;;;;;2.80;1.37;;;13.60;41.20;;;;;;5043718;28;20440;-70
2022/12/30 22:10:30;;;;;;;1.67;1.20;;;13.60;41.00;;;;;;5033003;28;20456;-70
2022/12/30 22:12:57;;;;;;;1.87;1.40;;;13.80;41.50;;;;;;5049676;28;20403;-70
2022/12/30 22:15:23;;;;;;;1.83;1.37;;;13.80;41.20;;;;;;5043222;28;20423;-68
2022/12/30 22:17:49;;;;;;;2.83;1.50;;;13.80;41.20;;;;;;5046258;28;20431;-71
2022/12/30 22:20:15;;;;;;;1.40;1.30;;;13.80;41.10;;;;;;5043981;28;20451;-71
2022/12/30 22:22:57;;;;;;;1.40;1.13;;;13.80;41.10;;;;;;5039229;28;20173;-68
2022/12/30 22:25:26;;;;;;;2.00;1.60;;;13.80;41.10;;;;;;5041077;28;20521;-71
2022/12/30 22:27:53;;;;;;;1.77;1.30;;;13.90;41.20;;;;;;5047917;28;20419;-71
2022/12/30 22:30:19;;;;;;;2.33;1.40;;;13.90;39.00;;;;;;5048556;28;20503;-70
2022/12/30 22:32:46;;;;;;;2.80;1.40;;;13.90;41.40;;;;;;5041405;28;20424;-69
2022/12/30 22:35:12;;;;;;;2.70;1.50;;;14.00;41.40;;;;;;5042795;28;20435;-70
2022/12/30 22:37:39;;;;;;;1.60;1.20;;;14.00;40.00;;;;;;5047087;28;20427;-69
2022/12/30 22:40:05;;;;;;;2.73;1.30;;;14.00;30.90;;;;;;5041073;28;20484;-69
2022/12/30 22:42:31;;;;;;;1.20;1.10;;;14.00;34.20;;;;;;5049572;28;20416;-69
2022/12/30 22:44:56;;;;;;;1.43;1.33;;;14.00;32.10;;;;;;5043573;28;20431;-69
2022/12/30 22:47:22;;;;;;;1.43;1.20;;;14.00;33.40;;;;;;5044251;28;20185;-70
2022/12/30 22:49:49;;;;;;;2.70;1.40;;;14.10;31.00;;;;;;5047289;28;20196;-69
2022/12/30 22:52:16;;;;;;;4.43;1.20;;;14.10;28.50;;;;;;5038292;28;20459;-69
2022/12/30 22:54:41;;;;;;;1.43;1.23;;;14.20;29.80;;;;;;5033748;28;20437;-71
2022/12/30 22:57:07;;;;;;;1.70;1.30;;;14.20;29.30;;;;;;5041998;28;20489;-70
2022/12/30 22:59:32;;;;;;;1.60;1.30;;;14.20;28.80;;;;;;5047357;28;20204;-71
2022/12/30 23:01:58;;;;;;;1.30;1.20;;;14.20;27.70;;;;;;5050713;28;20711;-70
2022/12/30 23:04:25;;;;;;;1.83;1.27;;;14.20;26.80;;;;;;5044910;28;20173;-70
2022/12/30 23:06:51;;;;;;;1.77;1.10;;;14.30;26.30;;;;;;5038298;28;20201;-71
2022/12/30 23:09:16;;;;;;;1.10;1.00;;;14.30;24.60;;;;;;5030847;28;20462;-69
2022/12/30 23:11:42;;;;;;;1.40;1.13;;;14.30;23.20;;;;;;5029456;28;20624;-69
2022/12/30 23:16:53;;;;;;;1.90;1.40;;;14.40;21.30;;;;;;5068076;28;20188;-69
2022/12/30 23:19:19;;;;;;;1.30;1.13;;;14.40;21.60;;;;;;5071036;28;20411;-70
2022/12/30 23:21:44;;;;;;;1.20;1.10;;;14.40;20.20;;;;;;5058506;28;20200;-69
2022/12/30 23:26:54;;;;;;;2.30;1.10;;;14.40;18.30;;;;;;5031139;28;20274;-70
2022/12/30 23:29:20;;;;;;;1.30;0.90;;;14.50;18.00;;;;;;5032819;28;20432;-70
2022/12/30 23:31:46;;;;;;;1.57;1.00;;;14.50;18.20;;;;;;5047032;28;20350;-70
2022/12/30 23:34:13;;;;;;;1.30;0.93;;;14.50;21.70;;;;;;5044523;28;20182;-70
2022/12/30 23:36:40;;;;;;;1.30;1.10;;;14.50;19.00;;;;;;5040030;28;20751;-69
2022/12/30 23:39:06;;;;;;;1.87;1.00;;;14.50;18.90;;;;;;5030205;28;20440;-69
2022/12/30 23:41:32;;;;;;;2.97;1.83;;;14.60;18.00;;;;;;5037728;28;20489;-68
2022/12/30 23:43:58;;;;;;;1.60;1.20;;;14.70;19.40;;;;;;5042785;28;20830;-69
2022/12/30 23:46:24;;;;;;;1.60;1.10;;;14.60;21.20;;;;;;5049303;28;20463;-69
2022/12/30 23:48:50;;;;;;;1.17;1.00;;;14.70;22.50;;;;;;5040538;28;20238;-69
2022/12/30 23:51:18;;;;;;;1.10;0.90;;;14.60;24.00;;;;;;5039301;28;20262;-70
2022/12/30 23:53:44;;;;;;;1.00;0.80;;;14.70;24.80;;;;;;5045370;28;20506;-70
2022/12/30 23:56:16;;;;;;;1.80;1.20;;;14.60;29.20;;;;;;5046829;28;20475;-70
2022/12/30 23:58:42;;;;;;;1.93;1.07;;;14.60;34.20;;;;;;5038609;28;20456;-68
